Time;durP1;ratioP1;P1;durP2;ratioP2;P2;SDS_P1;SDS_P2;PMS_P1;PMS_P2;Temp;Humidity;BMP_temperature;BMP_pressure;BME280_temperature;BME280_humidity;BME280_pressure;Samples;Min_cycle;Max_cycle;Signal;HPM_P1;HPM_P2
2022/08/17 00:01:02;;;;;;;8.15;4.18;;;;;;;;;;6121338;23;20203;-89
2022/08/17 00:04:08;;;;;;;8.52;3.85;;;;;;;;;;6122350;23;20193;-89
2022/08/17 00:07:13;;;;;;;6.63;3.50;;;;;;;;;;6122149;23;20213;-90
2022/08/17 00:10:19;;;;;;;6.50;3.67;;;;;;;;;;6120662;23;20281;-89
2022/08/17 00:13:28;;;;;;;8.18;4.47;;;;;;;;;;6119241;23;20177;-90
2022/08/17 00:16:34;;;;;;;8.88;4.18;;;;;;;;;;6119368;23;20173;-89
2022/08/17 00:19:39;;;;;;;9.70;4.25;;;;;;;;;;6121435;23;20160;-88
2022/08/17 00:22:45;;;;;;;5.13;3.50;;;;;;;;;;6122300;23;20293;-90
2022/08/17 00:25:51;;;;;;;7.05;4.45;;;;;;;;;;6120492;23;20644;-90
2022/08/17 00:28:57;;;;;;;9.25;3.85;;;;;;;;;;6124461;23;20154;-90
2022/08/17 00:32:02;;;;;;;8.32;4.35;;;;;;;;;;6124471;23;20169;-90
2022/08/17 00:35:08;;;;;;;7.00;4.53;;;;;;;;;;6120595;23;20246;-90
2022/08/17 00:38:13;;;;;;;8.18;4.63;;;;;;;;;;6123335;23;20624;-90
2022/08/17 00:41:22;;;;;;;9.57;4.60;;;;;;;;;;6119930;23;20221;-88
2022/08/17 00:44:27;;;;;;;8.70;4.85;;;;;;;;;;6120268;23;20236;-90
2022/08/17 00:47:32;;;;;;;7.93;4.75;;;;;;;;;;6119466;23;20192;-90
2022/08/17 00:50:38;;;;;;;6.50;4.50;;;;;;;;;;6118865;23;20173;-89
2022/08/17 00:53:45;;;;;;;7.65;4.50;;;;;;;;;;6119213;23;20288;-92
2022/08/17 01:00:20;;;;;;;5.97;4.10;;;;;;;;;;6120637;23;20193;-87
2022/08/17 01:03:26;;;;;;;5.75;4.20;;;;;;;;;;6119085;23;20174;-88
2022/08/17 01:06:32;;;;;;;8.45;4.03;;;;;;;;;;6118126;23;20201;-92
2022/08/17 01:09:37;;;;;;;7.68;4.75;;;;;;;;;;6118658;23;20603;-92
2022/08/17 01:12:44;;;;;;;5.80;3.83;;;;;;;;;;6116872;23;20172;-90
2022/08/17 01:15:49;;;;;;;5.25;3.72;;;;;;;;;;6116871;23;20177;-90
2022/08/17 01:18:57;;;;;;;10.10;4.07;;;;;;;;;;6116446;23;20245;-91
2022/08/17 01:22:07;;;;;;;6.32;3.70;;;;;;;;;;6119020;23;20173;-90
2022/08/17 01:25:14;;;;;;;7.03;4.20;;;;;;;;;;6119984;23;20168;-90
2022/08/17 01:28:20;;;;;;;7.72;4.13;;;;;;;;;;6118528;23;20249;-88
2022/08/17 01:31:26;;;;;;;6.35;4.00;;;;;;;;;;6122415;23;20218;-90
2022/08/17 01:34:31;;;;;;;6.22;3.67;;;;;;;;;;6116958;23;20174;-89
2022/08/17 01:37:39;;;;;;;10.70;4.22;;;;;;;;;;6119235;23;20243;-89
2022/08/17 01:40:47;;;;;;;5.45;3.90;;;;;;;;;;6119093;23;20193;-89
2022/08/17 01:43:54;;;;;;;8.95;4.03;;;;;;;;;;6120548;23;20178;-91
2022/08/17 01:46:59;;;;;;;4.63;3.40;;;;;;;;;;6118622;23;20262;-89
2022/08/17 01:50:09;;;;;;;6.85;4.32;;;;;;;;;;6120190;23;20196;-89
2022/08/17 01:53:16;;;;;;;7.40;3.80;;;;;;;;;;6117290;23;20168;-89
2022/08/17 01:56:24;;;;;;;7.18;3.83;;;;;;;;;;6119511;23;20227;-89
2022/08/17 01:59:29;;;;;;;8.18;3.97;;;;;;;;;;6119356;23;20270;-90
2022/08/17 02:02:34;;;;;;;6.03;3.85;;;;;;;;;;6119051;23;20169;-88
2022/08/17 02:05:39;;;;;;;5.63;3.60;;;;;;;;;;6119842;23;20169;-90
2022/08/17 02:08:45;;;;;;;6.13;4.22;;;;;;;;;;6118623;23;20174;-90
2022/08/17 02:11:52;;;;;;;7.07;4.32;;;;;;;;;;6118825;23;20157;-89
2022/08/17 02:14:56;;;;;;;7.25;4.35;;;;;;;;;;6120341;23;20622;-90
2022/08/17 02:18:02;;;;;;;10.68;4.68;;;;;;;;;;6120320;23;20173;-91
2022/08/17 02:21:07;;;;;;;7.07;4.45;;;;;;;;;;6120278;23;20153;-88
2022/08/17 02:24:16;;;;;;;6.90;4.18;;;;;;;;;;6137196;23;20289;-90
2022/08/17 02:27:22;;;;;;;7.82;4.68;;;;;;;;;;6118760;23;20192;-89
2022/08/17 02:30:28;;;;;;;9.15;4.18;;;;;;;;;;6118635;23;20177;-92
2022/08/17 02:33:33;;;;;;;8.10;4.70;;;;;;;;;;6117757;23;20218;-90
2022/08/17 02:36:39;;;;;;;6.60;4.45;;;;;;;;;;6120275;23;20237;-90
2022/08/17 02:39:44;;;;;;;6.50;4.72;;;;;;;;;;6119184;23;20506;-88
2022/08/17 02:42:53;;;;;;;7.10;4.80;;;;;;;;;;6117273;23;20579;-88
2022/08/17 02:45:58;;;;;;;11.57;4.65;;;;;;;;;;6118667;23;20230;-91
2022/08/17 02:49:04;;;;;;;7.07;4.50;;;;;;;;;;6118995;23;20192;-89
2022/08/17 02:52:10;;;;;;;7.20;4.65;;;;;;;;;;6122443;23;20164;-87
2022/08/17 02:55:18;;;;;;;7.03;4.50;;;;;;;;;;6119784;23;20172;-90
2022/08/17 02:58:24;;;;;;;8.15;4.40;;;;;;;;;;6117259;23;20266;-87
2022/08/17 03:01:29;;;;;;;10.25;4.35;;;;;;;;;;6119908;23;20197;-91
2022/08/17 03:04:34;;;;;;;8.38;4.68;;;;;;;;;;6118529;23;20177;-91
2022/08/17 03:07:39;;;;;;;7.63;5.00;;;;;;;;;;6118561;23;20248;-91
2022/08/17 03:10:45;;;;;;;6.57;4.60;;;;;;;;;;6119803;23;20275;-90
2022/08/17 03:13:52;;;;;;;8.98;4.72;;;;;;;;;;6118905;23;20193;-89
2022/08/17 03:16:58;;;;;;;8.88;4.57;;;;;;;;;;6119163;23;20165;-88
2022/08/17 03:20:03;;;;;;;9.82;4.45;;;;;;;;;;6118571;23;20173;-88
2022/08/17 03:23:08;;;;;;;10.07;4.70;;;;;;;;;;6118921;23;20190;-87
2022/08/17 03:26:14;;;;;;;10.07;4.20;;;;;;;;;;6119522;23;20173;-89
2022/08/17 03:29:20;;;;;;;6.43;4.03;;;;;;;;;;6119164;23;20185;-89
2022/08/17 03:32:25;;;;;;;6.55;4.20;;;;;;;;;;6118329;23;20180;-90
2022/08/17 03:35:32;;;;;;;7.47;4.45;;;;;;;;;;6121610;23;20209;-91
2022/08/17 03:38:38;;;;;;;10.82;4.70;;;;;;;;;;6118940;23;20168;-88
2022/08/17 03:41:43;;;;;;;7.20;4.00;;;;;;;;;;6136167;23;20309;-91
2022/08/17 03:44:50;;;;;;;11.55;4.25;;;;;;;;;;6118599;23;20169;-90
2022/08/17 03:58:09;;;;;;;9.27;4.47;;;;;;;;;;6118439;23;20185;-90
2022/08/17 04:01:45;;;;;;;5.55;4.00;;;;;;;;;;6119723;23;20214;-90
2022/08/17 04:04:52;;;;;;;7.43;4.22;;;;;;;;;;6120216;23;20173;-90
2022/08/17 04:07:57;;;;;;;9.77;4.35;;;;;;;;;;6120050;23;20197;-91
2022/08/17 04:11:03;;;;;;;6.43;3.90;;;;;;;;;;6120430;23;20186;-90
2022/08/17 04:14:08;;;;;;;6.43;3.70;;;;;;;;;;6120707;23;20216;-89
2022/08/17 04:17:13;;;;;;;6.85;4.00;;;;;;;;;;6122460;23;20602;-92
2022/08/17 04:20:22;;;;;;;7.35;4.45;;;;;;;;;;6122470;23;20561;-89
2022/08/17 04:23:31;;;;;;;6.75;4.03;;;;;;;;;;6123059;23;20231;-89
2022/08/17 04:26:37;;;;;;;7.85;4.32;;;;;;;;;;6121523;23;20169;-91
2022/08/17 04:29:42;;;;;;;5.80;4.20;;;;;;;;;;6138391;23;20177;-85
2022/08/17 04:32:51;;;;;;;6.20;4.40;;;;;;;;;;6122075;23;20206;-90
2022/08/17 04:36:00;;;;;;;5.13;3.67;;;;;;;;;;6123338;23;20169;-87
2022/08/17 04:39:05;;;;;;;11.48;4.72;;;;;;;;;;6123514;23;20177;-91
2022/08/17 04:42:15;;;;;;;7.70;4.43;;;;;;;;;;6122823;23;20304;-91
2022/08/17 04:45:23;;;;;;;9.25;4.15;;;;;;;;;;6119954;23;20181;-89
2022/08/17 04:48:31;;;;;;;10.60;4.38;;;;;;;;;;6120581;23;20284;-91
2022/08/17 04:51:38;;;;;;;7.97;4.47;;;;;;;;;;6122310;23;20253;-88
2022/08/17 04:54:43;;;;;;;5.55;4.07;;;;;;;;;;6122027;23;20710;-89
2022/08/17 04:57:48;;;;;;;7.13;4.43;;;;;;;;;;6123498;23;20257;-88
2022/08/17 05:00:54;;;;;;;7.18;4.80;;;;;;;;;;6121685;23;20188;-89
2022/08/17 05:04:02;;;;;;;10.60;4.28;;;;;;;;;;6126381;23;20205;-89
2022/08/17 05:07:09;;;;;;;7.05;4.63;;;;;;;;;;6125517;23;20177;-89
2022/08/17 05:10:15;;;;;;;10.60;4.82;;;;;;;;;;6124724;23;20173;-89
2022/08/17 05:13:22;;;;;;;7.07;4.35;;;;;;;;;;6123946;23;20507;-91
2022/08/17 05:16:29;;;;;;;10.60;4.80;;;;;;;;;;6124999;23;20239;-89
2022/08/17 05:19:34;;;;;;;8.10;4.57;;;;;;;;;;6121746;23;20165;-89
2022/08/17 05:22:50;;;;;;;7.80;4.00;;;;;;;;;;6122494;23;20587;-88
2022/08/17 05:25:57;;;;;;;6.63;4.20;;;;;;;;;;6124002;23;20197;-90
2022/08/17 05:29:02;;;;;;;7.38;4.50;;;;;;;;;;6141967;23;20201;-89
2022/08/17 05:32:10;;;;;;;7.95;4.20;;;;;;;;;;6123101;23;20237;-88
2022/08/17 05:35:16;;;;;;;9.35;4.25;;;;;;;;;;6122813;23;20235;-90
2022/08/17 05:38:25;;;;;;;8.65;3.88;;;;;;;;;;6125355;23;20153;-88
2022/08/17 05:41:30;;;;;;;7.40;4.00;;;;;;;;;;6125043;23;20173;-89
2022/08/17 05:44:35;;;;;;;9.27;4.47;;;;;;;;;;6122459;23;20169;-91
2022/08/17 05:47:41;;;;;;;6.57;4.25;;;;;;;;;;6126000;23;20191;-89
2022/08/17 05:50:50;;;;;;;8.43;4.43;;;;;;;;;;6123736;23;20181;-90
2022/08/17 05:54:05;;;;;;;9.00;4.28;;;;;;;;;;6123955;23;20172;-90
2022/08/17 05:57:17;;;;;;;5.30;4.20;;;;;;;;;;6125049;23;20182;-91
2022/08/17 06:00:25;;;;;;;7.25;4.00;;;;;;;;;;6124329;23;20638;-90
2022/08/17 06:03:39;;;;;;;9.52;4.40;;;;;;;;;;6106411;23;20193;-91
2022/08/17 06:06:48;;;;;;;5.50;3.85;;;;;;;;;;6122140;23;20157;-90
2022/08/17 06:10:00;;;;;;;7.72;3.92;;;;;;;;;;6121569;23;20158;-88
2022/08/17 06:13:09;;;;;;;7.40;3.90;;;;;;;;;;6121735;23;20163;-89
2022/08/17 06:16:17;;;;;;;9.77;4.22;;;;;;;;;;6121779;23;20270;-88
2022/08/17 06:19:28;;;;;;;6.05;4.35;;;;;;;;;;6120500;23;20629;-90
2022/08/17 06:22:36;;;;;;;6.05;3.90;;;;;;;;;;6118915;23;20246;-91
2022/08/17 06:25:45;;;;;;;6.70;3.55;;;;;;;;;;6119891;23;20157;-92
2022/08/17 06:28:52;;;;;;;6.80;4.13;;;;;;;;;;6120490;23;20689;-92
2022/08/17 06:31:57;;;;;;;8.75;4.22;;;;;;;;;;6120156;23;20173;-90
2022/08/17 06:35:03;;;;;;;8.35;4.50;;;;;;;;;;6119503;23;20177;-90
2022/08/17 06:38:13;;;;;;;12.65;4.07;;;;;;;;;;6120731;23;20585;-89
2022/08/17 06:41:25;;;;;;;6.53;4.45;;;;;;;;;;6121274;23;20173;-90
2022/08/17 06:44:35;;;;;;;6.85;4.22;;;;;;;;;;6122016;23;20173;-90
2022/08/17 06:47:46;;;;;;;10.98;4.10;;;;;;;;;;6123369;23;20198;-91
2022/08/17 06:50:53;;;;;;;5.97;3.88;;;;;;;;;;6120968;23;20173;-89
2022/08/17 06:54:01;;;;;;;6.70;3.90;;;;;;;;;;6121284;23;20178;-90
2022/08/17 06:57:13;;;;;;;8.93;4.00;;;;;;;;;;6124814;23;20164;-89
2022/08/17 07:00:21;;;;;;;5.78;3.58;;;;;;;;;;6121948;23;20169;-90
2022/08/17 07:03:29;;;;;;;9.05;3.90;;;;;;;;;;6123297;23;20165;-92
2022/08/17 07:06:36;;;;;;;8.00;3.67;;;;;;;;;;6121118;23;20261;-90
2022/08/17 07:09:44;;;;;;;10.13;5.25;;;;;;;;;;6104959;23;20677;-90
2022/08/17 07:12:51;;;;;;;6.60;3.80;;;;;;;;;;6122708;23;20174;-90
2022/08/17 07:16:03;;;;;;;9.30;3.72;;;;;;;;;;6122084;23;20197;-92
2022/08/17 07:19:08;;;;;;;5.22;3.60;;;;;;;;;;6121537;23;20391;-91
2022/08/17 07:22:21;;;;;;;5.35;3.28;;;;;;;;;;6118901;23;20202;-89
2022/08/17 07:25:27;;;;;;;4.28;3.20;;;;;;;;;;6121497;23;20177;-91
2022/08/17 07:28:37;;;;;;;6.78;3.20;;;;;;;;;;6121483;23;20185;-88
2022/08/17 07:31:42;;;;;;;7.30;3.25;;;;;;;;;;6122552;23;20169;-91
2022/08/17 07:35:03;;;;;;;8.63;3.42;;;;;;;;;;6123320;23;20165;-90
2022/08/17 07:38:10;;;;;;;5.07;2.97;;;;;;;;;;6120495;23;20193;-89
2022/08/17 07:41:16;;;;;;;6.50;3.10;;;;;;;;;;6117329;23;20217;-90
2022/08/17 07:44:22;;;;;;;8.93;3.60;;;;;;;;;;6121103;23;20227;-90
2022/08/17 07:50:52;;;;;;;7.95;3.10;;;;;;;;;;6121361;23;20173;-90
2022/08/17 07:53:58;;;;;;;8.60;3.28;;;;;;;;;;6122948;23;20173;-88
2022/08/17 07:57:05;;;;;;;5.80;3.28;;;;;;;;;;6140816;23;20193;-90
2022/08/17 08:00:18;;;;;;;5.07;2.80;;;;;;;;;;6121445;23;20213;-89
2022/08/17 08:03:25;;;;;;;3.78;2.90;;;;;;;;;;6123968;23;20173;-92
2022/08/17 08:06:31;;;;;;;6.50;2.67;;;;;;;;;;6122253;23;20508;-91
2022/08/17 08:09:39;;;;;;;4.25;2.65;;;;;;;;;;6122377;23;20212;-89
2022/08/17 08:12:46;;;;;;;3.72;2.40;;;;;;;;;;6121639;23;20173;-90
2022/08/17 08:15:54;;;;;;;7.53;2.63;;;;;;;;;;6121692;23;20173;-90
2022/08/17 08:19:00;;;;;;;7.88;3.20;;;;;;;;;;6125217;23;20168;-90
2022/08/17 08:22:09;;;;;;;4.80;2.30;;;;;;;;;;6124815;23;20172;-90
2022/08/17 08:25:21;;;;;;;5.00;2.75;;;;;;;;;;6123768;23;20288;-91
2022/08/17 08:28:28;;;;;;;5.35;2.42;;;;;;;;;;6123764;23;20192;-91
2022/08/17 08:31:44;;;;;;;6.05;2.60;;;;;;;;;;6123326;23;20165;-90
2022/08/17 08:34:57;;;;;;;3.70;2.60;;;;;;;;;;6122652;23;20173;-90
2022/08/17 08:38:08;;;;;;;5.82;2.78;;;;;;;;;;6124851;23;20165;-92
2022/08/17 08:41:28;;;;;;;6.68;2.83;;;;;;;;;;6122260;23;20177;-90
2022/08/17 08:44:37;;;;;;;3.22;2.42;;;;;;;;;;6122384;23;20177;-91
2022/08/17 08:47:51;;;;;;;5.45;2.47;;;;;;;;;;6121184;23;20168;-90
2022/08/17 08:51:00;;;;;;;3.70;2.50;;;;;;;;;;6122038;23;20208;-90
2022/08/17 08:54:09;;;;;;;6.30;2.50;;;;;;;;;;6120339;23;20176;-92
2022/08/17 08:57:18;;;;;;;3.45;2.40;;;;;;;;;;6123032;23;20197;-91
2022/08/17 09:00:36;;;;;;;5.38;2.20;;;;;;;;;;6123785;23;20169;-92
2022/08/17 09:03:48;;;;;;;4.07;2.83;;;;;;;;;;6123723;23;20173;-91
2022/08/17 09:06:58;;;;;;;5.57;2.67;;;;;;;;;;6123878;23;20169;-92
2022/08/17 09:10:06;;;;;;;3.95;2.50;;;;;;;;;;6124316;23;20255;-91
2022/08/17 09:13:15;;;;;;;5.88;2.75;;;;;;;;;;6122522;23;20197;-90
2022/08/17 09:16:28;;;;;;;4.57;2.78;;;;;;;;;;6120803;23;20177;-92
2022/08/17 09:19:39;;;;;;;3.63;2.85;;;;;;;;;;6121970;23;20169;-93
2022/08/17 09:22:56;;;;;;;5.57;2.33;;;;;;;;;;6120391;23;20165;-91
2022/08/17 09:26:10;;;;;;;3.67;2.55;;;;;;;;;;6119830;23;20164;-92
2022/08/17 09:29:16;;;;;;;5.47;3.05;;;;;;;;;;6121624;23;20196;-89
2022/08/17 09:32:25;;;;;;;5.65;2.47;;;;;;;;;;6118727;23;20188;-94
2022/08/17 09:35:34;;;;;;;7.00;2.53;;;;;;;;;;6122418;23;20193;-93
2022/08/17 09:38:45;;;;;;;3.30;2.50;;;;;;;;;;6121500;23;20168;-89
2022/08/17 09:41:54;;;;;;;4.22;2.20;;;;;;;;;;6120979;23;20171;-89
2022/08/17 09:45:07;;;;;;;5.13;2.45;;;;;;;;;;6122073;23;20176;-91
2022/08/17 09:48:16;;;;;;;6.15;2.13;;;;;;;;;;6119648;23;20204;-89
2022/08/17 09:51:30;;;;;;;4.47;2.60;;;;;;;;;;6120984;23;20677;-92
2022/08/17 09:54:36;;;;;;;3.42;2.00;;;;;;;;;;6119179;23;20240;-90
2022/08/17 09:57:48;;;;;;;4.05;2.40;;;;;;;;;;6120666;23;20507;-90
2022/08/17 10:00:55;;;;;;;8.43;2.58;;;;;;;;;;6122593;23;20169;-90
2022/08/17 10:04:07;;;;;;;5.45;2.58;;;;;;;;;;6123418;23;20176;-90
2022/08/17 10:07:16;;;;;;;7.63;2.45;;;;;;;;;;6124662;23;20176;-90
2022/08/17 10:10:29;;;;;;;3.10;1.80;;;;;;;;;;6119371;23;20196;-92
2022/08/17 10:13:39;;;;;;;6.90;2.22;;;;;;;;;;6121335;23;20196;-93
2022/08/17 10:16:47;;;;;;;2.78;2.20;;;;;;;;;;6120566;23;20193;-92
2022/08/17 10:19:55;;;;;;;3.65;2.28;;;;;;;;;;6121514;23;20169;-91
2022/08/17 10:26:27;;;;;;;4.57;2.30;;;;;;;;;;6118961;23;20220;-89
2022/08/17 10:29:34;;;;;;;5.18;2.10;;;;;;;;;;6120556;23;20262;-92
2022/08/17 10:32:45;;;;;;;7.18;3.08;;;;;;;;;;6119855;23;20293;-92
2022/08/17 10:35:57;;;;;;;5.05;2.22;;;;;;;;;;6120194;23;20181;-92
2022/08/17 10:39:15;;;;;;;2.92;2.00;;;;;;;;;;6120560;23;20169;-93
2022/08/17 10:42:25;;;;;;;5.95;2.63;;;;;;;;;;6119888;23;20697;-91
2022/08/17 10:46:01;;;;;;;7.30;2.72;;;;;;;;;;6119761;23;20292;-92
2022/08/17 10:49:15;;;;;;;4.60;2.08;;;;;;;;;;6121969;23;20305;-90
2022/08/17 10:52:48;;;;;;;3.58;2.22;;;;;;;;;;6120306;23;20221;-92
2022/08/17 10:56:08;;;;;;;2.53;1.80;;;;;;;;;;6084080;23;20316;-93
2022/08/17 10:59:31;;;;;;;4.10;2.22;;;;;;;;;;6120288;23;20608;-92
2022/08/17 11:02:47;;;;;;;3.53;2.33;;;;;;;;;;6123525;23;20251;-89
2022/08/17 11:05:57;;;;;;;2.88;2.10;;;;;;;;;;6120328;23;20248;-91
2022/08/17 11:09:11;;;;;;;4.20;2.90;;;;;;;;;;6118986;23;20648;-90
2022/08/17 11:12:24;;;;;;;6.75;2.22;;;;;;;;;;6119732;23;20168;-91
2022/08/17 11:15:40;;;;;;;3.05;2.05;;;;;;;;;;6117930;23;20621;-92
2022/08/17 11:19:08;;;;;;;4.80;1.88;;;;;;;;;;6120339;23;20173;-92
2022/08/17 11:22:28;;;;;;;4.55;1.73;;;;;;;;;;6122671;23;20600;-92
2022/08/17 11:25:34;;;;;;;3.60;2.20;;;;;;;;;;6127957;23;20185;-91
2022/08/17 11:28:47;;;;;;;4.55;1.90;;;;;;;;;;6125424;23;20172;-90
2022/08/17 11:32:00;;;;;;;3.38;2.28;;;;;;;;;;6125567;23;20169;-92
2022/08/17 11:35:28;;;;;;;5.15;2.17;;;;;;;;;;6127440;23;20222;-90
2022/08/17 11:38:46;;;;;;;6.80;2.15;;;;;;;;;;6127074;23;20185;-91
2022/08/17 11:41:56;;;;;;;7.53;2.38;;;;;;;;;;6126732;23;20169;-91
2022/08/17 11:45:08;;;;;;;4.25;2.50;;;;;;;;;;6125926;23;20184;-90
2022/08/17 11:52:10;;;;;;;5.13;2.38;;;;;;;;;;6122982;23;20193;-91
2022/08/17 11:55:31;;;;;;;31.85;4.20;;;;;;;;;;6123657;23;20177;-91
2022/08/17 11:58:38;;;;;;;4.55;2.10;;;;;;;;;;6123306;23;20325;-91
2022/08/17 12:01:55;;;;;;;10.75;2.42;;;;;;;;;;6122301;23;20245;-91
2022/08/17 12:05:02;;;;;;;9.00;2.13;;;;;;;;;;6123514;23;20179;-90
2022/08/17 12:08:16;;;;;;;7.85;2.70;;;;;;;;;;6126751;23;20152;-89
2022/08/17 12:11:24;;;;;;;7.68;2.17;;;;;;;;;;6122829;23;20169;-92
2022/08/17 12:14:32;;;;;;;4.38;1.90;;;;;;;;;;6121384;23;20917;-91
2022/08/17 12:17:37;;;;;;;4.13;2.00;;;;;;;;;;6120457;23;20192;-91
2022/08/17 12:20:48;;;;;;;3.83;1.90;;;;;;;;;;6121068;23;20185;-91
2022/08/17 12:24:02;;;;;;;3.08;1.80;;;;;;;;;;6120041;23;20169;-91
2022/08/17 12:27:10;;;;;;;3.67;2.28;;;;;;;;;;6122287;23;20168;-91
2022/08/17 12:30:17;;;;;;;5.38;2.15;;;;;;;;;;6122139;23;20708;-91
2022/08/17 12:33:27;;;;;;;5.22;1.92;;;;;;;;;;6122003;23;20288;-91
2022/08/17 12:36:33;;;;;;;5.13;2.08;;;;;;;;;;6124109;23;20177;-91
2022/08/17 12:39:41;;;;;;;5.93;2.03;;;;;;;;;;6121969;23;20171;-91
2022/08/17 12:42:50;;;;;;;2.83;1.80;;;;;;;;;;6123455;23;20244;-91
2022/08/17 12:49:21;;;;;;;3.75;1.92;;;;;;;;;;6123524;23;20212;-92
2022/08/17 12:52:28;;;;;;;3.95;2.00;;;;;;;;;;6123034;23;20171;-92
2022/08/17 12:55:37;;;;;;;6.93;2.10;;;;;;;;;;6123218;23;20311;-92
2022/08/17 12:58:46;;;;;;;4.32;1.80;;;;;;;;;;6123904;23;20172;-94
2022/08/17 13:01:54;;;;;;;4.00;1.88;;;;;;;;;;6128706;23;20216;-91
2022/08/17 13:05:01;;;;;;;4.50;1.90;;;;;;;;;;6122454;23;20496;-89
2022/08/17 13:08:15;;;;;;;5.53;2.22;;;;;;;;;;6125331;23;20172;-93
2022/08/17 13:11:24;;;;;;;3.58;1.92;;;;;;;;;;6124764;23;20224;-91
2022/08/17 13:14:29;;;;;;;3.10;1.80;;;;;;;;;;6124311;23;20177;-90
2022/08/17 13:17:36;;;;;;;3.83;1.90;;;;;;;;;;6122582;23;20201;-91
2022/08/17 13:20:41;;;;;;;3.78;2.15;;;;;;;;;;6122062;23;20165;-92
2022/08/17 13:23:55;;;;;;;3.55;2.10;;;;;;;;;;6123446;23;20172;-92
2022/08/17 13:27:07;;;;;;;9.75;2.78;;;;;;;;;;6125123;23;20219;-93
2022/08/17 13:30:13;;;;;;;3.83;1.75;;;;;;;;;;6120344;23;20752;-92
2022/08/17 13:33:25;;;;;;;3.72;2.15;;;;;;;;;;6124962;23;20177;-92
2022/08/17 13:36:32;;;;;;;5.18;2.10;;;;;;;;;;6123416;23;20172;-93
2022/08/17 13:39:41;;;;;;;3.17;1.83;;;;;;;;;;6124064;23;20218;-92
2022/08/17 13:42:50;;;;;;;4.93;2.80;;;;;;;;;;6121584;23;20177;-93
2022/08/17 13:46:14;;;;;;;3.22;1.90;;;;;;;;;;6122593;23;20172;-92
2022/08/17 13:49:21;;;;;;;6.25;2.05;;;;;;;;;;6121901;23;20195;-91
2022/08/17 13:52:39;;;;;;;6.25;2.25;;;;;;;;;;6123629;23;20213;-91
2022/08/17 13:55:48;;;;;;;2.53;1.88;;;;;;;;;;6122738;23;20175;-91
2022/08/17 13:58:57;;;;;;;6.85;2.40;;;;;;;;;;6123241;23;20174;-90
2022/08/17 14:02:03;;;;;;;3.10;1.90;;;;;;;;;;6122666;23;20209;-92
2022/08/17 14:05:17;;;;;;;5.03;2.28;;;;;;;;;;6123626;23;20173;-91
2022/08/17 14:08:25;;;;;;;10.13;4.13;;;;;;;;;;6123228;23;20167;-91
2022/08/17 14:11:30;;;;;;;7.00;2.00;;;;;;;;;;6121072;23;20245;-91
2022/08/17 14:14:39;;;;;;;4.35;2.28;;;;;;;;;;6121060;23;20184;-92
2022/08/17 14:17:48;;;;;;;2.45;1.90;;;;;;;;;;6121480;23;20164;-92
2022/08/17 14:20:55;;;;;;;2.55;1.58;;;;;;;;;;6120451;23;20217;-91
2022/08/17 14:24:00;;;;;;;5.38;2.40;;;;;;;;;;6118361;23;20265;-91
2022/08/17 14:27:07;;;;;;;2.72;1.80;;;;;;;;;;6119969;23;20281;-91
2022/08/17 14:30:16;;;;;;;2.53;1.90;;;;;;;;;;6120823;23;20191;-89
2022/08/17 14:33:23;;;;;;;4.00;1.92;;;;;;;;;;6120400;23;20197;-89
2022/08/17 14:36:30;;;;;;;7.10;3.22;;;;;;;;;;6121473;23;20201;-91
2022/08/17 14:39:35;;;;;;;2.97;1.85;;;;;;;;;;6121711;23;20168;-90
2022/08/17 14:42:42;;;;;;;3.22;1.70;;;;;;;;;;6122251;23;20168;-90
2022/08/17 14:45:55;;;;;;;4.68;1.88;;;;;;;;;;6122493;23;20163;-89
2022/08/17 14:49:01;;;;;;;4.38;2.50;;;;;;;;;;6120325;23;20196;-90
2022/08/17 14:52:09;;;;;;;3.42;2.10;;;;;;;;;;6119740;23;20250;-91
2022/08/17 14:55:17;;;;;;;3.25;1.80;;;;;;;;;;6120566;23;20173;-91
2022/08/17 14:58:22;;;;;;;3.72;1.85;;;;;;;;;;6120918;23;20213;-90
2022/08/17 15:01:29;;;;;;;4.43;1.77;;;;;;;;;;6123037;23;20152;-92
2022/08/17 15:04:35;;;;;;;2.90;2.03;;;;;;;;;;6121957;23;20163;-91
2022/08/17 15:07:42;;;;;;;3.55;1.70;;;;;;;;;;6122901;23;20177;-90
2022/08/17 15:10:49;;;;;;;5.30;2.20;;;;;;;;;;6123782;23;20200;-91
2022/08/17 15:13:55;;;;;;;4.22;2.38;;;;;;;;;;6120234;23;20616;-91
2022/08/17 15:21:23;;;;;;;4.88;2.22;;;;;;;;;;6140660;23;20156;-90
2022/08/17 15:24:28;;;;;;;2.65;1.88;;;;;;;;;;6120637;23;20232;-90
2022/08/17 15:27:35;;;;;;;6.85;2.13;;;;;;;;;;6121927;23;20172;-89
2022/08/17 15:30:42;;;;;;;4.95;2.20;;;;;;;;;;6121197;23;20275;-89
2022/08/17 15:33:50;;;;;;;6.22;2.50;;;;;;;;;;6122004;23;20240;-91
2022/08/17 15:36:57;;;;;;;4.43;2.03;;;;;;;;;;6120692;23;20177;-91
2022/08/17 15:40:06;;;;;;;4.93;2.42;;;;;;;;;;6120791;23;20183;-91
2022/08/17 15:43:12;;;;;;;4.80;2.20;;;;;;;;;;6121293;23;20181;-93
2022/08/17 15:46:18;;;;;;;5.15;2.80;;;;;;;;;;6122891;23;20165;-93
2022/08/17 15:49:23;;;;;;;5.30;2.10;;;;;;;;;;6121286;23;20196;-90
2022/08/17 15:52:30;;;;;;;4.25;2.20;;;;;;;;;;6123323;23;20164;-91
2022/08/17 15:55:37;;;;;;;3.85;2.13;;;;;;;;;;6122471;23;20175;-90
2022/08/17 15:58:43;;;;;;;4.45;2.40;;;;;;;;;;6123957;23;20188;-90
2022/08/17 16:01:50;;;;;;;3.38;2.10;;;;;;;;;;6122436;23;20173;-92
2022/08/17 16:04:56;;;;;;;5.43;2.58;;;;;;;;;;6126148;23;20197;-91
2022/08/17 16:08:03;;;;;;;2.95;1.90;;;;;;;;;;6125912;23;20253;-91
2022/08/17 16:11:10;;;;;;;5.28;2.15;;;;;;;;;;6127722;23;20241;-91
2022/08/17 16:14:16;;;;;;;5.70;2.30;;;;;;;;;;6125167;23;20181;-91
2022/08/17 16:17:21;;;;;;;3.80;2.15;;;;;;;;;;6123660;23;20176;-91
2022/08/17 16:20:26;;;;;;;4.25;2.28;;;;;;;;;;6126144;23;20168;-92
2022/08/17 16:23:33;;;;;;;5.45;2.50;;;;;;;;;;6122041;23;20451;-91
2022/08/17 16:26:38;;;;;;;4.75;2.30;;;;;;;;;;6122657;23;20172;-89
2022/08/17 16:29:43;;;;;;;6.28;2.45;;;;;;;;;;6123911;23;20275;-90
2022/08/17 16:32:51;;;;;;;3.88;2.70;;;;;;;;;;6124352;23;20176;-88
2022/08/17 16:35:57;;;;;;;4.15;2.55;;;;;;;;;;6127178;23;20213;-89
2022/08/17 16:39:04;;;;;;;8.10;2.85;;;;;;;;;;6127088;23;20172;-90
2022/08/17 16:42:23;;;;;;;2.88;2.22;;;;;;;;;;6125492;23;20613;-90
2022/08/17 16:45:38;;;;;;;3.72;2.25;;;;;;;;;;6125353;23;20173;-91
2022/08/17 16:48:45;;;;;;;10.18;2.67;;;;;;;;;;6122329;23;20229;-91
2022/08/17 16:51:50;;;;;;;8.23;2.60;;;;;;;;;;6123614;23;20191;-90
2022/08/17 16:54:58;;;;;;;7.40;2.53;;;;;;;;;;6123770;23;20293;-91
2022/08/17 16:58:05;;;;;;;5.57;2.42;;;;;;;;;;6123192;23;20169;-92
2022/08/17 17:01:10;;;;;;;11.65;7.75;;;;;;;;;;6124053;23;20173;-92
2022/08/17 17:04:17;;;;;;;5.53;3.03;;;;;;;;;;6123271;23;20189;-92
2022/08/17 17:07:44;;;;;;;5.78;2.53;;;;;;;;;;6124055;23;20173;-92
2022/08/17 17:10:51;;;;;;;7.28;2.90;;;;;;;;;;6120310;23;20269;-91
2022/08/17 17:13:58;;;;;;;9.30;2.60;;;;;;;;;;6121762;23;20200;-93
2022/08/17 17:17:05;;;;;;;6.85;2.40;;;;;;;;;;6118939;23;20177;-91
2022/08/17 17:20:12;;;;;;;5.45;2.42;;;;;;;;;;6120379;23;20180;-91
2022/08/17 17:23:25;;;;;;;5.10;2.30;;;;;;;;;;6121315;23;20176;-92
2022/08/17 17:26:43;;;;;;;4.60;2.67;;;;;;;;;;6125261;23;20169;-91
2022/08/17 17:30:03;;;;;;;6.78;2.40;;;;;;;;;;6127001;23;20194;-91
2022/08/17 17:33:11;;;;;;;6.78;2.75;;;;;;;;;;6125070;23;20161;-90
2022/08/17 17:36:23;;;;;;;9.40;3.28;;;;;;;;;;6128706;23;20242;-91
2022/08/17 17:39:33;;;;;;;12.77;3.15;;;;;;;;;;6123583;23;20221;-92
2022/08/17 17:42:40;;;;;;;8.68;3.22;;;;;;;;;;6120075;23;20185;-93
2022/08/17 17:46:21;;;;;;;5.43;2.80;;;;;;;;;;6120087;23;20189;-91
2022/08/17 17:49:27;;;;;;;8.98;2.80;;;;;;;;;;6120408;23;20208;-90
2022/08/17 17:52:36;;;;;;;5.00;2.60;;;;;;;;;;6122731;23;20288;-91
2022/08/17 17:55:49;;;;;;;7.68;3.00;;;;;;;;;;6125747;23;20250;-91
2022/08/17 17:59:04;;;;;;;9.55;3.60;;;;;;;;;;6122210;23;20228;-92
2022/08/17 18:02:45;;;;;;;9.15;3.50;;;;;;;;;;6122495;23;20161;-91
2022/08/17 18:05:48;;;;;;;9.00;3.50;;;;;;;;;;6123278;23;20177;-90
2022/08/17 18:09:01;;;;;;;5.50;2.83;;;;;;;;;;6121339;23;20181;-91
2022/08/17 18:12:19;;;;;;;8.32;3.30;;;;;;;;;;6120793;23;20196;-90
2022/08/17 18:15:30;;;;;;;10.13;3.40;;;;;;;;;;6123119;23;20157;-90
2022/08/17 18:18:37;;;;;;;4.60;2.63;;;;;;;;;;6122088;23;20172;-90
2022/08/17 18:21:45;;;;;;;6.25;2.83;;;;;;;;;;6121426;23;20169;-90
2022/08/17 18:24:54;;;;;;;6.85;2.70;;;;;;;;;;6123167;23;20165;-92
2022/08/17 18:27:59;;;;;;;10.68;3.13;;;;;;;;;;6123625;23;20194;-91
2022/08/17 18:31:11;;;;;;;9.85;3.10;;;;;;;;;;6122761;23;20656;-91
2022/08/17 18:34:22;;;;;;;12.02;3.95;;;;;;;;;;6123645;23;20498;-90
2022/08/17 18:37:33;;;;;;;9.10;3.00;;;;;;;;;;6123911;23;20217;-92
2022/08/17 18:40:39;;;;;;;6.18;3.05;;;;;;;;;;6122800;23;20168;-91
2022/08/17 18:43:44;;;;;;;6.43;3.88;;;;;;;;;;6121430;23;20178;-90
2022/08/17 18:47:05;;;;;;;11.02;4.05;;;;;;;;;;6119399;23;20176;-92
2022/08/17 18:50:22;;;;;;;6.93;2.97;;;;;;;;;;6121952;23;20313;-90
2022/08/17 18:53:39;;;;;;;5.95;2.90;;;;;;;;;;6123085;23;20499;-92
2022/08/17 18:56:49;;;;;;;8.90;3.50;;;;;;;;;;6121620;23;20182;-90
2022/08/17 22:47:37;;;;;;;10.52;4.82;;;;;;;;;;6098684;23;20213;-89
2022/08/17 22:50:44;;;;;;;7.40;4.13;;;;;;;;;;6120136;23;20644;-89
2022/08/17 23:00:39;;;;;;;8.27;4.85;;;;;;;;;;6121254;23;20177;-90
2022/08/17 23:03:53;;;;;;;27.42;6.80;;;;;;;;;;6119293;23;20181;-89
2022/08/17 23:07:00;;;;;;;14.70;5.55;;;;;;;;;;6118931;23;20249;-89
2022/08/17 23:10:05;;;;;;;9.10;5.20;;;;;;;;;;6119087;23;20173;-91
2022/08/17 23:13:12;;;;;;;11.13;5.65;;;;;;;;;;6118921;23;20847;-89
2022/08/17 23:16:17;;;;;;;9.65;5.43;;;;;;;;;;6120003;23;20508;-89